createdAt,value
2022-12-05T09:47:41.030Z,4.20
2022-12-05T09:50:16.352Z,4.20
2022-12-05T09:52:57.470Z,4.20
2022-12-05T09:55:26.038Z,4.30
2022-12-05T09:57:58.322Z,4.40
2022-12-05T10:00:29.812Z,4.40
2022-12-05T10:35:19.774Z,4.60
2022-12-05T10:37:50.377Z,4.60
2022-12-05T10:40:18.884Z,4.60
2022-12-05T10:42:50.933Z,4.70
2022-12-05T10:45:21.986Z,4.70
2022-12-05T10:47:54.301Z,4.70
2022-12-05T10:50:29.327Z,4.70
2022-12-05T10:52:58.839Z,4.80
2022-12-05T10:55:31.763Z,4.80
2022-12-05T10:58:17.526Z,4.80
2022-12-05T11:03:30.500Z,4.90
2022-12-05T11:06:01.778Z,4.90
2022-12-05T11:09:02.502Z,4.90
2022-12-05T11:11:24.129Z,5.00
2022-12-05T11:13:57.655Z,5.00
2022-12-05T11:16:27.940Z,5.00
2022-12-05T11:18:58.004Z,5.00
2022-12-05T11:21:26.170Z,5.00
2022-12-05T11:23:54.268Z,5.00
2022-12-05T11:26:36.614Z,5.10
2022-12-05T11:29:04.968Z,5.10
2022-12-05T11:31:33.356Z,5.10
2022-12-05T11:34:20.335Z,5.10
2022-12-05T11:36:52.431Z,5.20
2022-12-05T11:39:20.622Z,5.20
2022-12-05T11:42:17.895Z,5.30
2022-12-05T11:45:13.971Z,5.30
2022-12-05T11:47:56.428Z,5.40
2022-12-05T11:50:40.436Z,5.40
2022-12-05T11:53:26.199Z,5.40
2022-12-05T11:55:59.172Z,5.50
2022-12-05T11:58:48.862Z,5.50
2022-12-05T12:01:27.921Z,5.60
2022-12-05T12:04:43.937Z,5.60
2022-12-05T12:07:46.249Z,5.60
2022-12-05T12:10:23.706Z,5.60
2022-12-05T12:13:03.746Z,5.60
2022-12-05T12:15:47.696Z,5.60
2022-12-05T12:18:25.766Z,5.60
2022-12-05T12:21:06.030Z,5.70
2022-12-05T12:23:47.100Z,5.70
2022-12-05T12:26:21.526Z,5.60
2022-12-05T12:29:07.488Z,5.60
2022-12-05T12:31:51.693Z,5.60
2022-12-05T12:34:49.792Z,5.60
2022-12-05T12:37:28.916Z,5.60
2022-12-05T12:40:04.998Z,5.60
2022-12-05T12:42:42.097Z,5.60
2022-12-05T12:45:52.921Z,5.60
2022-12-05T12:48:39.256Z,5.60
2022-12-05T12:51:12.995Z,5.60
2022-12-05T13:02:39.358Z,5.60
2022-12-05T13:05:16.888Z,5.60
2022-12-05T13:07:52.617Z,5.60
2022-12-05T13:10:28.363Z,5.60
2022-12-05T13:12:58.937Z,5.60
2022-12-05T13:15:35.692Z,5.70
2022-12-05T13:18:06.634Z,5.70
2022-12-05T13:20:36.635Z,5.70
